sensor_id;sensor_type;location;lat;lon;timestamp;temperature;humidity
2523;DHT22;1272;53.332;9.860;2022-11-20T00:00:09;0.60;99.90
2523;DHT22;1272;53.332;9.860;2022-11-20T00:02:35;0.60;99.90
2523;DHT22;1272;53.332;9.860;2022-11-20T00:05:00;0.60;99.90
2523;DHT22;1272;53.332;9.860;2022-11-20T00:07:26;0.70;99.90
2523;DHT22;1272;53.332;9.860;2022-11-20T00:09:52;0.60;99.90
2523;DHT22;1272;53.332;9.860;2022-11-20T00:12:17;0.60;99.90
2523;DHT22;1272;53.332;9.860;2022-11-20T00:14:43;0.60;99.90
2523;DHT22;1272;53.332;9.860;2022-11-20T00:17:09;0.60;99.90
2523;DHT22;1272;53.332;9.860;2022-11-20T00:19:34;0.60;99.90
2523;DHT22;1272;53.332;9.860;2022-11-20T00:22:00;0.60;99.90
2523;DHT22;1272;53.332;9.860;2022-11-20T00:24:26;0.60;99.90
2523;DHT22;1272;53.332;9.860;2022-11-20T00:26:51;0.60;99.90
2523;DHT22;1272;53.332;9.860;2022-11-20T00:29:17;0.50;99.90
2523;DHT22;1272;53.332;9.860;2022-11-20T00:31:43;0.60;99.90
2523;DHT22;1272;53.332;9.860;2022-11-20T00:34:09;0.50;99.90
2523;DHT22;1272;53.332;9.860;2022-11-20T00:36:35;0.50;99.90
2523;DHT22;1272;53.332;9.860;2022-11-20T00:39:01;0.50;99.90
2523;DHT22;1272;53.332;9.860;2022-11-20T00:41:28;0.50;99.90
2523;DHT22;1272;53.332;9.860;2022-11-20T00:43:54;0.50;99.90
2523;DHT22;1272;53.332;9.860;2022-11-20T00:46:23;0.60;99.90
2523;DHT22;1272;53.332;9.860;2022-11-20T00:48:49;0.50;99.90
2523;DHT22;1272;53.332;9.860;2022-11-20T00:51:17;0.50;99.90
2523;DHT22;1272;53.332;9.860;2022-11-20T00:53:44;0.50;99.90
2523;DHT22;1272;53.332;9.860;2022-11-20T00:56:14;0.50;99.90
2523;DHT22;1272;53.332;9.860;2022-11-20T00:58:42;0.50;99.90
2523;DHT22;1272;53.332;9.860;2022-11-20T01:03:42;0.60;99.90
2523;DHT22;1272;53.332;9.860;2022-11-20T01:06:20;0.60;99.90
2523;DHT22;1272;53.332;9.860;2022-11-20T01:08:47;0.60;99.90
2523;DHT22;1272;53.332;9.860;2022-11-20T01:11:18;0.60;99.90
2523;DHT22;1272;53.332;9.860;2022-11-20T01:13:45;0.60;99.90
2523;DHT22;1272;53.332;9.860;2022-11-20T01:16:20;0.50;99.90
2523;DHT22;1272;53.332;9.860;2022-11-20T01:18:48;0.50;99.90
2523;DHT22;1272;53.332;9.860;2022-11-20T01:21:20;0.50;99.90
2523;DHT22;1272;53.332;9.860;2022-11-20T01:23:47;0.50;99.90
2523;DHT22;1272;53.332;9.860;2022-11-20T01:26:25;0.50;99.90
2523;DHT22;1272;53.332;9.860;2022-11-20T01:28:51;0.50;99.90
2523;DHT22;1272;53.332;9.860;2022-11-20T01:31:22;0.40;99.90
2523;DHT22;1272;53.332;9.860;2022-11-20T01:33:51;0.40;99.90
2523;DHT22;1272;53.332;9.860;2022-11-20T01:36:18;0.40;99.90
2523;DHT22;1272;53.332;9.860;2022-11-20T01:38:44;0.50;99.90
2523;DHT22;1272;53.332;9.860;2022-11-20T01:41:12;0.40;99.90
2523;DHT22;1272;53.332;9.860;2022-11-20T01:43:59;0.40;99.90
2523;DHT22;1272;53.332;9.860;2022-11-20T01:46:25;0.40;99.90
2523;DHT22;1272;53.332;9.860;2022-11-20T01:49:04;0.50;99.90
2523;DHT22;1272;53.332;9.860;2022-11-20T01:54:11;0.40;99.90
2523;DHT22;1272;53.332;9.860;2022-11-20T01:56:40;0.40;99.90
2523;DHT22;1272;53.332;9.860;2022-11-20T01:59:08;0.40;99.90
2523;DHT22;1272;53.332;9.860;2022-11-20T02:01:35;0.40;99.90
2523;DHT22;1272;53.332;9.860;2022-11-20T02:04:01;0.40;99.90
2523;DHT22;1272;53.332;9.860;2022-11-20T02:06:38;0.40;99.90
2523;DHT22;1272;53.332;9.860;2022-11-20T02:09:08;0.40;99.90
2523;DHT22;1272;53.332;9.860;2022-11-20T02:11:34;0.40;99.90
2523;DHT22;1272;53.332;9.860;2022-11-20T02:14:02;0.40;99.90
2523;DHT22;1272;53.332;9.860;2022-11-20T02:16:29;0.30;99.90
2523;DHT22;1272;53.332;9.860;2022-11-20T02:18:59;0.30;99.90
2523;DHT22;1272;53.332;9.860;2022-11-20T02:21:43;0.20;99.90
2523;DHT22;1272;53.332;9.860;2022-11-20T02:24:21;0.20;99.90
2523;DHT22;1272;53.332;9.860;2022-11-20T02:26:59;0.20;99.90
2523;DHT22;1272;53.332;9.860;2022-11-20T02:29:33;0.20;99.90
2523;DHT22;1272;53.332;9.860;2022-11-20T02:32:00;0.30;99.90
2523;DHT22;1272;53.332;9.860;2022-11-20T02:34:27;0.30;99.90
2523;DHT22;1272;53.332;9.860;2022-11-20T02:36:54;0.30;99.90
2523;DHT22;1272;53.332;9.860;2022-11-20T02:39:23;0.30;99.90
2523;DHT22;1272;53.332;9.860;2022-11-20T02:41:53;0.30;99.90
2523;DHT22;1272;53.332;9.860;2022-11-20T02:44:19;0.30;99.90
2523;DHT22;1272;53.332;9.860;2022-11-20T02:46:46;0.30;99.90
2523;DHT22;1272;53.332;9.860;2022-11-20T02:49:11;0.30;99.90
2523;DHT22;1272;53.332;9.860;2022-11-20T02:51:37;0.30;99.90
2523;DHT22;1272;53.332;9.860;2022-11-20T02:54:04;0.30;99.90
2523;DHT22;1272;53.332;9.860;2022-11-20T02:56:30;0.30;99.90
2523;DHT22;1272;53.332;9.860;2022-11-20T02:58:57;0.30;99.90
2523;DHT22;1272;53.332;9.860;2022-11-20T03:01:22;0.20;99.90
2523;DHT22;1272;53.332;9.860;2022-11-20T03:03:48;0.30;99.90
2523;DHT22;1272;53.332;9.860;2022-11-20T03:06:15;0.30;99.90
2523;DHT22;1272;53.332;9.860;2022-11-20T03:08:42;0.30;99.90
2523;DHT22;1272;53.332;9.860;2022-11-20T03:11:08;0.30;99.90
2523;DHT22;1272;53.332;9.860;2022-11-20T03:13:34;0.30;99.90
2523;DHT22;1272;53.332;9.860;2022-11-20T03:16:13;0.30;99.90
2523;DHT22;1272;53.332;9.860;2022-11-20T03:18:40;0.40;99.90
2523;DHT22;1272;53.332;9.860;2022-11-20T03:21:07;0.40;99.90
2523;DHT22;1272;53.332;9.860;2022-11-20T03:23:34;0.40;99.90
2523;DHT22;1272;53.332;9.860;2022-11-20T03:26:18;0.40;99.90
2523;DHT22;1272;53.332;9.860;2022-11-20T03:28:52;0.40;99.90
2523;DHT22;1272;53.332;9.860;2022-11-20T03:31:21;0.50;99.90
2523;DHT22;1272;53.332;9.860;2022-11-20T03:33:47;0.40;99.90
2523;DHT22;1272;53.332;9.860;2022-11-20T03:36:15;0.40;99.90
2523;DHT22;1272;53.332;9.860;2022-11-20T03:38:41;0.40;99.90
2523;DHT22;1272;53.332;9.860;2022-11-20T03:41:09;0.40;99.90
2523;DHT22;1272;53.332;9.860;2022-11-20T03:43:36;0.40;99.90
2523;DHT22;1272;53.332;9.860;2022-11-20T03:46:02;0.40;99.90
2523;DHT22;1272;53.332;9.860;2022-11-20T03:48:28;0.40;99.90
2523;DHT22;1272;53.332;9.860;2022-11-20T03:51:27;0.50;99.90
2523;DHT22;1272;53.332;9.860;2022-11-20T03:53:56;0.50;99.90
2523;DHT22;1272;53.332;9.860;2022-11-20T03:56:27;0.60;99.90
2523;DHT22;1272;53.332;9.860;2022-11-20T03:58:53;0.50;99.90
2523;DHT22;1272;53.332;9.860;2022-11-20T04:01:22;0.50;99.90
2523;DHT22;1272;53.332;9.860;2022-11-20T04:03:48;0.50;99.90
2523;DHT22;1272;53.332;9.860;2022-11-20T04:06:18;0.50;99.90
2523;DHT22;1272;53.332;9.860;2022-11-20T04:08:44;0.60;99.90
2523;DHT22;1272;53.332;9.860;2022-11-20T04:11:16;0.50;99.90
2523;DHT22;1272;53.332;9.860;2022-11-20T04:13:42;0.50;99.90
2523;DHT22;1272;53.332;9.860;2022-11-20T04:16:10;0.50;99.90
2523;DHT22;1272;53.332;9.860;2022-11-20T04:18:36;0.50;99.90
2523;DHT22;1272;53.332;9.860;2022-11-20T04:21:02;0.50;99.90
2523;DHT22;1272;53.332;9.860;2022-11-20T04:23:28;0.60;99.90
2523;DHT22;1272;53.332;9.860;2022-11-20T04:25:54;0.60;99.90
2523;DHT22;1272;53.332;9.860;2022-11-20T04:28:20;0.60;99.90
2523;DHT22;1272;53.332;9.860;2022-11-20T04:30:46;0.60;99.90
2523;DHT22;1272;53.332;9.860;2022-11-20T04:33:11;0.60;99.90
2523;DHT22;1272;53.332;9.860;2022-11-20T04:35:38;0.60;99.90
2523;DHT22;1272;53.332;9.860;2022-11-20T04:38:04;0.70;99.90
2523;DHT22;1272;53.332;9.860;2022-11-20T04:40:30;0.60;99.90
2523;DHT22;1272;53.332;9.860;2022-11-20T04:42:56;0.60;99.90
2523;DHT22;1272;53.332;9.860;2022-11-20T04:45:22;0.60;99.90
2523;DHT22;1272;53.332;9.860;2022-11-20T04:47:48;0.70;99.90
2523;DHT22;1272;53.332;9.860;2022-11-20T04:50:14;0.70;99.90
2523;DHT22;1272;53.332;9.860;2022-11-20T04:52:40;0.70;99.90
2523;DHT22;1272;53.332;9.860;2022-11-20T04:55:06;0.60;99.90
2523;DHT22;1272;53.332;9.860;2022-11-20T04:57:32;0.60;99.90
2523;DHT22;1272;53.332;9.860;2022-11-20T04:59:58;0.60;99.90
2523;DHT22;1272;53.332;9.860;2022-11-20T05:02:23;0.60;99.90
2523;DHT22;1272;53.332;9.860;2022-11-20T05:04:49;0.60;99.90
2523;DHT22;1272;53.332;9.860;2022-11-20T05:07:15;0.70;99.90
2523;DHT22;1272;53.332;9.860;2022-11-20T05:09:41;0.70;99.90
2523;DHT22;1272;53.332;9.860;2022-11-20T05:12:08;0.60;99.90
2523;DHT22;1272;53.332;9.860;2022-11-20T05:14:34;0.60;99.90
2523;DHT22;1272;53.332;9.860;2022-11-20T05:16:59;0.60;99.90
2523;DHT22;1272;53.332;9.860;2022-11-20T05:19:25;0.60;99.90
2523;DHT22;1272;53.332;9.860;2022-11-20T05:21:51;0.60;99.90
2523;DHT22;1272;53.332;9.860;2022-11-20T05:24:16;0.60;99.90
2523;DHT22;1272;53.332;9.860;2022-11-20T05:26:42;0.60;99.90
2523;DHT22;1272;53.332;9.860;2022-11-20T05:29:10;0.70;99.90
2523;DHT22;1272;53.332;9.860;2022-11-20T05:31:39;0.70;99.90
2523;DHT22;1272;53.332;9.860;2022-11-20T05:34:05;0.70;99.90
2523;DHT22;1272;53.332;9.860;2022-11-20T05:36:31;0.70;99.90
2523;DHT22;1272;53.332;9.860;2022-11-20T05:38:57;0.60;99.90
2523;DHT22;1272;53.332;9.860;2022-11-20T05:41:22;0.60;99.90
2523;DHT22;1272;53.332;9.860;2022-11-20T05:43:49;0.60;99.90
2523;DHT22;1272;53.332;9.860;2022-11-20T05:46:17;0.70;99.90
2523;DHT22;1272;53.332;9.860;2022-11-20T05:48:44;0.70;99.90
2523;DHT22;1272;53.332;9.860;2022-11-20T05:51:12;0.70;99.90
2523;DHT22;1272;53.332;9.860;2022-11-20T05:53:38;0.60;99.90
2523;DHT22;1272;53.332;9.860;2022-11-20T05:56:12;0.60;99.90
2523;DHT22;1272;53.332;9.860;2022-11-20T05:58:38;0.60;99.90
2523;DHT22;1272;53.332;9.860;2022-11-20T06:01:08;0.60;99.90
2523;DHT22;1272;53.332;9.860;2022-11-20T06:03:34;0.70;99.90
2523;DHT22;1272;53.332;9.860;2022-11-20T06:06:01;0.60;99.90
2523;DHT22;1272;53.332;9.860;2022-11-20T06:08:27;0.60;99.90
2523;DHT22;1272;53.332;9.860;2022-11-20T06:10:53;0.60;99.90
2523;DHT22;1272;53.332;9.860;2022-11-20T06:13:19;0.70;99.90
2523;DHT22;1272;53.332;9.860;2022-11-20T06:15:53;0.70;99.90
2523;DHT22;1272;53.332;9.860;2022-11-20T06:18:19;0.70;99.90
2523;DHT22;1272;53.332;9.860;2022-11-20T06:20:46;0.60;99.90
2523;DHT22;1272;53.332;9.860;2022-11-20T06:23:12;0.70;99.90
2523;DHT22;1272;53.332;9.860;2022-11-20T06:25:40;0.60;99.90
2523;DHT22;1272;53.332;9.860;2022-11-20T06:28:05;0.60;99.90
2523;DHT22;1272;53.332;9.860;2022-11-20T06:30:31;0.60;99.90
2523;DHT22;1272;53.332;9.860;2022-11-20T06:32:57;0.60;99.90
2523;DHT22;1272;53.332;9.860;2022-11-20T06:35:26;0.60;99.90
2523;DHT22;1272;53.332;9.860;2022-11-20T06:37:51;0.60;99.90
2523;DHT22;1272;53.332;9.860;2022-11-20T06:40:17;0.70;99.90
2523;DHT22;1272;53.332;9.860;2022-11-20T06:42:43;0.70;99.90
2523;DHT22;1272;53.332;9.860;2022-11-20T06:45:09;0.70;99.90
2523;DHT22;1272;53.332;9.860;2022-11-20T06:47:35;0.70;99.90
2523;DHT22;1272;53.332;9.860;2022-11-20T06:50:01;0.70;99.90
2523;DHT22;1272;53.332;9.860;2022-11-20T06:52:26;0.70;99.90
2523;DHT22;1272;53.332;9.860;2022-11-20T06:54:52;0.60;99.90
2523;DHT22;1272;53.332;9.860;2022-11-20T06:57:18;0.60;99.90
2523;DHT22;1272;53.332;9.860;2022-11-20T06:59:44;0.70;99.90
2523;DHT22;1272;53.332;9.860;2022-11-20T07:02:11;0.70;99.90
2523;DHT22;1272;53.332;9.860;2022-11-20T07:04:37;0.70;99.90
2523;DHT22;1272;53.332;9.860;2022-11-20T07:07:03;0.70;99.90
2523;DHT22;1272;53.332;9.860;2022-11-20T07:09:29;0.60;99.90
2523;DHT22;1272;53.332;9.860;2022-11-20T07:11:55;0.60;99.90
2523;DHT22;1272;53.332;9.860;2022-11-20T07:14:21;0.70;99.90
2523;DHT22;1272;53.332;9.860;2022-11-20T07:16:47;0.70;99.90
2523;DHT22;1272;53.332;9.860;2022-11-20T07:19:12;0.70;99.90
2523;DHT22;1272;53.332;9.860;2022-11-20T07:21:38;0.70;99.90
2523;DHT22;1272;53.332;9.860;2022-11-20T07:24:04;0.70;99.90
2523;DHT22;1272;53.332;9.860;2022-11-20T07:26:29;0.70;99.90
2523;DHT22;1272;53.332;9.860;2022-11-20T07:28:55;0.60;99.90
2523;DHT22;1272;53.332;9.860;2022-11-20T07:31:24;0.60;99.90
2523;DHT22;1272;53.332;9.860;2022-11-20T07:33:50;0.60;99.90
2523;DHT22;1272;53.332;9.860;2022-11-20T07:36:16;0.70;99.90
2523;DHT22;1272;53.332;9.860;2022-11-20T07:38:41;0.70;99.90
2523;DHT22;1272;53.332;9.860;2022-11-20T07:41:07;0.70;99.90
2523;DHT22;1272;53.332;9.860;2022-11-20T07:43:32;0.70;99.90
2523;DHT22;1272;53.332;9.860;2022-11-20T07:45:58;0.70;99.90
2523;DHT22;1272;53.332;9.860;2022-11-20T07:48:25;0.80;99.90
2523;DHT22;1272;53.332;9.860;2022-11-20T07:50:57;0.80;99.90
2523;DHT22;1272;53.332;9.860;2022-11-20T07:53:23;0.80;99.90
2523;DHT22;1272;53.332;9.860;2022-11-20T07:55:49;0.80;99.90
2523;DHT22;1272;53.332;9.860;2022-11-20T07:58:15;0.80;99.90
2523;DHT22;1272;53.332;9.860;2022-11-20T08:00:41;0.80;99.90
2523;DHT22;1272;53.332;9.860;2022-11-20T08:03:07;0.90;99.90
2523;DHT22;1272;53.332;9.860;2022-11-20T08:05:33;0.90;99.90
2523;DHT22;1272;53.332;9.860;2022-11-20T08:07:59;0.90;99.90
2523;DHT22;1272;53.332;9.860;2022-11-20T08:10:25;0.90;99.90
2523;DHT22;1272;53.332;9.860;2022-11-20T08:12:52;0.90;99.90
2523;DHT22;1272;53.332;9.860;2022-11-20T08:15:37;0.90;99.90
2523;DHT22;1272;53.332;9.860;2022-11-20T08:18:06;1.00;99.90
2523;DHT22;1272;53.332;9.860;2022-11-20T08:20:33;1.00;99.90
2523;DHT22;1272;53.332;9.860;2022-11-20T08:23:04;1.00;99.90
2523;DHT22;1272;53.332;9.860;2022-11-20T08:25:36;1.00;99.90
2523;DHT22;1272;53.332;9.860;2022-11-20T08:28:05;1.00;99.90
2523;DHT22;1272;53.332;9.860;2022-11-20T08:30:31;1.00;99.90
2523;DHT22;1272;53.332;9.860;2022-11-20T08:33:08;0.90;99.90
2523;DHT22;1272;53.332;9.860;2022-11-20T08:35:37;1.00;99.90
2523;DHT22;1272;53.332;9.860;2022-11-20T08:38:06;1.00;99.90
2523;DHT22;1272;53.332;9.860;2022-11-20T08:40:32;1.00;99.90
2523;DHT22;1272;53.332;9.860;2022-11-20T08:42:58;1.00;99.90
2523;DHT22;1272;53.332;9.860;2022-11-20T08:45:24;1.00;99.90
2523;DHT22;1272;53.332;9.860;2022-11-20T08:47:50;1.00;99.90
2523;DHT22;1272;53.332;9.860;2022-11-20T08:50:17;1.00;99.90
2523;DHT22;1272;53.332;9.860;2022-11-20T08:52:42;1.00;99.90
2523;DHT22;1272;53.332;9.860;2022-11-20T08:55:09;1.10;99.90
2523;DHT22;1272;53.332;9.860;2022-11-20T08:57:35;1.10;99.90
2523;DHT22;1272;53.332;9.860;2022-11-20T09:00:03;1.10;99.90
2523;DHT22;1272;53.332;9.860;2022-11-20T09:02:29;1.20;99.90
2523;DHT22;1272;53.332;9.860;2022-11-20T09:04:55;1.20;99.90
2523;DHT22;1272;53.332;9.860;2022-11-20T09:07:20;1.20;99.90
2523;DHT22;1272;53.332;9.860;2022-11-20T09:09:46;1.20;99.90
2523;DHT22;1272;53.332;9.860;2022-11-20T09:12:13;1.20;99.90
2523;DHT22;1272;53.332;9.860;2022-11-20T09:14:39;1.20;99.90
2523;DHT22;1272;53.332;9.860;2022-11-20T09:17:04;1.20;99.90
2523;DHT22;1272;53.332;9.860;2022-11-20T09:19:30;1.20;99.90
2523;DHT22;1272;53.332;9.860;2022-11-20T09:21:56;1.20;99.90
2523;DHT22;1272;53.332;9.860;2022-11-20T09:24:21;1.20;99.90
2523;DHT22;1272;53.332;9.860;2022-11-20T09:26:47;1.30;99.90
2523;DHT22;1272;53.332;9.860;2022-11-20T09:29:13;1.40;99.90
2523;DHT22;1272;53.332;9.860;2022-11-20T09:31:39;1.50;99.90
2523;DHT22;1272;53.332;9.860;2022-11-20T09:34:05;1.60;99.90
2523;DHT22;1272;53.332;9.860;2022-11-20T09:36:30;1.70;99.90
2523;DHT22;1272;53.332;9.860;2022-11-20T09:38:56;1.60;99.90
2523;DHT22;1272;53.332;9.860;2022-11-20T09:41:36;1.60;99.90
2523;DHT22;1272;53.332;9.860;2022-11-20T09:46:57;1.70;99.90
2523;DHT22;1272;53.332;9.860;2022-11-20T09:54:45;2.00;99.90
2523;DHT22;1272;53.332;9.860;2022-11-20T09:57:12;2.10;99.90
2523;DHT22;1272;53.332;9.860;2022-11-20T09:59:44;2.10;99.90
2523;DHT22;1272;53.332;9.860;2022-11-20T10:08:28;1.90;99.90
2523;DHT22;1272;53.332;9.860;2022-11-20T10:10:47;1.90;99.90
2523;DHT22;1272;53.332;9.860;2022-11-20T10:21:41;2.00;99.90
2523;DHT22;1272;53.332;9.860;2022-11-20T10:29:34;1.90;99.90
2523;DHT22;1272;53.332;9.860;2022-11-20T10:32:24;2.00;99.90
2523;DHT22;1272;53.332;9.860;2022-11-20T10:37:25;2.20;99.90
2523;DHT22;1272;53.332;9.860;2022-11-20T10:42:36;2.40;99.90
2523;DHT22;1272;53.332;9.860;2022-11-20T10:45:48;2.50;99.90
2523;DHT22;1272;53.332;9.860;2022-11-20T10:48:16;2.70;99.90
2523;DHT22;1272;53.332;9.860;2022-11-20T10:50:55;2.90;99.90
2523;DHT22;1272;53.332;9.860;2022-11-20T10:53:40;3.20;99.90
2523;DHT22;1272;53.332;9.860;2022-11-20T10:56:38;3.40;99.90
2523;DHT22;1272;53.332;9.860;2022-11-20T11:02:01;3.60;99.90
2523;DHT22;1272;53.332;9.860;2022-11-20T11:04:46;3.70;99.90
2523;DHT22;1272;53.332;9.860;2022-11-20T11:09:50;3.60;1.00
2523;DHT22;1272;53.332;9.860;2022-11-20T11:12:18;3.50;1.00
2523;DHT22;1272;53.332;9.860;2022-11-20T11:14:45;3.40;5.90
2523;DHT22;1272;53.332;9.860;2022-11-20T11:17:24;3.40;7.80
2523;DHT22;1272;53.332;9.860;2022-11-20T11:20:14;3.50;18.70
2523;DHT22;1272;53.332;9.860;2022-11-20T11:22:51;3.70;52.20
2523;DHT22;1272;53.332;9.860;2022-11-20T11:25:26;3.90;13.80
2523;DHT22;1272;53.332;9.860;2022-11-20T11:27:54;4.10;1.00
2523;DHT22;1272;53.332;9.860;2022-11-20T11:30:22;4.30;99.90
2523;DHT22;1272;53.332;9.860;2022-11-20T11:32:49;4.10;99.90
2523;DHT22;1272;53.332;9.860;2022-11-20T11:35:26;4.00;1.00
2523;DHT22;1272;53.332;9.860;2022-11-20T11:38:11;4.00;99.90
2523;DHT22;1272;53.332;9.860;2022-11-20T11:40:39;3.90;99.90
2523;DHT22;1272;53.332;9.860;2022-11-20T11:43:19;3.70;99.10
2523;DHT22;1272;53.332;9.860;2022-11-20T11:46:12;3.60;99.90
2523;DHT22;1272;53.332;9.860;2022-11-20T11:49:14;3.50;99.90
2523;DHT22;1272;53.332;9.860;2022-11-20T11:52:04;3.40;99.90
2523;DHT22;1272;53.332;9.860;2022-11-20T11:54:38;3.20;1.00
2523;DHT22;1272;53.332;9.860;2022-11-20T12:00:28;3.00;1.00
2523;DHT22;1272;53.332;9.860;2022-11-20T12:03:06;3.00;1.00
2523;DHT22;1272;53.332;9.860;2022-11-20T12:05:40;3.20;1.60
2523;DHT22;1272;53.332;9.860;2022-11-20T12:08:24;3.50;1.00
2523;DHT22;1272;53.332;9.860;2022-11-20T12:16:34;4.20;22.70
2523;DHT22;1272;53.332;9.860;2022-11-20T12:19:00;4.20;99.90
2523;DHT22;1272;53.332;9.860;2022-11-20T12:21:36;4.30;1.00
2523;DHT22;1272;53.332;9.860;2022-11-20T12:44:51;4.70;99.90
2523;DHT22;1272;53.332;9.860;2022-11-20T12:53:40;4.50;1.00
2523;DHT22;1272;53.332;9.860;2022-11-20T13:05:04;3.80;99.90
2523;DHT22;1272;53.332;9.860;2022-11-20T13:07:32;3.80;1.00
2523;DHT22;1272;53.332;9.860;2022-11-20T13:09:59;3.80;1.00
2523;DHT22;1272;53.332;9.860;2022-11-20T13:12:29;3.80;99.90
2523;DHT22;1272;53.332;9.860;2022-11-20T13:18:07;3.90;1.00
2523;DHT22;1272;53.332;9.860;2022-11-20T13:20:34;3.90;1.00
2523;DHT22;1272;53.332;9.860;2022-11-20T13:23:00;4.00;1.00
2523;DHT22;1272;53.332;9.860;2022-11-20T13:25:32;3.90;1.00
2523;DHT22;1272;53.332;9.860;2022-11-20T13:28:00;3.80;99.90
2523;DHT22;1272;53.332;9.860;2022-11-20T13:30:29;3.80;99.90
2523;DHT22;1272;53.332;9.860;2022-11-20T13:35:33;3.70;1.20
2523;DHT22;1272;53.332;9.860;2022-11-20T13:38:06;3.70;99.90
2523;DHT22;1272;53.332;9.860;2022-11-20T13:40:33;3.70;99.90
2523;DHT22;1272;53.332;9.860;2022-11-20T13:46:04;3.60;1.00
2523;DHT22;1272;53.332;9.860;2022-11-20T13:48:39;3.50;1.00
2523;DHT22;1272;53.332;9.860;2022-11-20T13:57:13;3.40;99.90
2523;DHT22;1272;53.332;9.860;2022-11-20T13:59:56;3.40;99.90
2523;DHT22;1272;53.332;9.860;2022-11-20T14:02:24;3.40;99.90
2523;DHT22;1272;53.332;9.860;2022-11-20T14:04:53;3.50;99.90
2523;DHT22;1272;53.332;9.860;2022-11-20T14:07:22;3.40;99.90
2523;DHT22;1272;53.332;9.860;2022-11-20T14:09:51;3.40;99.90
2523;DHT22;1272;53.332;9.860;2022-11-20T14:12:20;3.40;99.90
2523;DHT22;1272;53.332;9.860;2022-11-20T14:14:52;3.30;99.90
2523;DHT22;1272;53.332;9.860;2022-11-20T14:17:39;3.30;99.90
2523;DHT22;1272;53.332;9.860;2022-11-20T14:20:12;3.30;99.90
2523;DHT22;1272;53.332;9.860;2022-11-20T14:22:39;3.20;1.00
2523;DHT22;1272;53.332;9.860;2022-11-20T14:27:54;3.10;1.00
2523;DHT22;1272;53.332;9.860;2022-11-20T14:30:46;3.10;1.00
2523;DHT22;1272;53.332;9.860;2022-11-20T14:33:13;3.10;1.00
2523;DHT22;1272;53.332;9.860;2022-11-20T14:35:57;3.10;1.00
2523;DHT22;1272;53.332;9.860;2022-11-20T14:38:31;3.10;1.00
2523;DHT22;1272;53.332;9.860;2022-11-20T14:41:07;3.10;1.00
2523;DHT22;1272;53.332;9.860;2022-11-20T14:43:33;3.10;1.00
2523;DHT22;1272;53.332;9.860;2022-11-20T14:46:10;3.10;1.00
2523;DHT22;1272;53.332;9.860;2022-11-20T14:48:45;3.00;1.00
2523;DHT22;1272;53.332;9.860;2022-11-20T14:54:11;3.00;1.00
2523;DHT22;1272;53.332;9.860;2022-11-20T14:56:37;3.00;1.00
2523;DHT22;1272;53.332;9.860;2022-11-20T14:59:03;2.90;1.00
2523;DHT22;1272;53.332;9.860;2022-11-20T15:01:30;2.90;1.00
2523;DHT22;1272;53.332;9.860;2022-11-20T15:04:05;2.90;1.00
2523;DHT22;1272;53.332;9.860;2022-11-20T15:06:32;2.90;1.00
2523;DHT22;1272;53.332;9.860;2022-11-20T15:08:58;2.90;1.00
2523;DHT22;1272;53.332;9.860;2022-11-20T15:11:35;2.90;1.00
2523;DHT22;1272;53.332;9.860;2022-11-20T15:14:03;2.90;1.00
2523;DHT22;1272;53.332;9.860;2022-11-20T15:16:33;2.90;1.00
2523;DHT22;1272;53.332;9.860;2022-11-20T15:19:00;2.80;1.00
2523;DHT22;1272;53.332;9.860;2022-11-20T15:21:27;2.80;1.00
2523;DHT22;1272;53.332;9.860;2022-11-20T15:23:53;2.80;1.00
2523;DHT22;1272;53.332;9.860;2022-11-20T15:26:26;2.80;1.00
2523;DHT22;1272;53.332;9.860;2022-11-20T15:28:53;2.80;1.00
2523;DHT22;1272;53.332;9.860;2022-11-20T15:31:21;2.70;6.10
2523;DHT22;1272;53.332;9.860;2022-11-20T15:33:48;2.70;22.60
2523;DHT22;1272;53.332;9.860;2022-11-20T15:36:14;2.70;41.90
2523;DHT22;1272;53.332;9.860;2022-11-20T15:38:40;2.70;57.10
2523;DHT22;1272;53.332;9.860;2022-11-20T15:41:06;2.70;64.40
2523;DHT22;1272;53.332;9.860;2022-11-20T15:43:32;2.80;75.10
2523;DHT22;1272;53.332;9.860;2022-11-20T15:46:04;2.70;81.20
2523;DHT22;1272;53.332;9.860;2022-11-20T15:48:51;2.70;86.30
2523;DHT22;1272;53.332;9.860;2022-11-20T15:53:51;2.50;81.10
2523;DHT22;1272;53.332;9.860;2022-11-20T15:56:16;2.50;68.80
2523;DHT22;1272;53.332;9.860;2022-11-20T15:58:42;2.40;73.10
2523;DHT22;1272;53.332;9.860;2022-11-20T16:01:12;2.30;88.20
2523;DHT22;1272;53.332;9.860;2022-11-20T16:03:39;2.20;99.90
2523;DHT22;1272;53.332;9.860;2022-11-20T16:06:05;2.10;99.90
2523;DHT22;1272;53.332;9.860;2022-11-20T16:08:31;2.10;99.90
2523;DHT22;1272;53.332;9.860;2022-11-20T16:10:56;2.10;99.90
2523;DHT22;1272;53.332;9.860;2022-11-20T16:13:25;2.10;99.90
2523;DHT22;1272;53.332;9.860;2022-11-20T16:16:22;2.10;99.90
2523;DHT22;1272;53.332;9.860;2022-11-20T16:18:49;2.00;99.90
2523;DHT22;1272;53.332;9.860;2022-11-20T16:21:15;1.90;99.90
2523;DHT22;1272;53.332;9.860;2022-11-20T16:23:41;1.90;99.90
2523;DHT22;1272;53.332;9.860;2022-11-20T16:26:15;1.90;99.90
2523;DHT22;1272;53.332;9.860;2022-11-20T16:28:42;1.90;99.90
2523;DHT22;1272;53.332;9.860;2022-11-20T16:31:13;1.90;99.90
2523;DHT22;1272;53.332;9.860;2022-11-20T16:33:39;1.90;99.90
2523;DHT22;1272;53.332;9.860;2022-11-20T16:36:13;1.80;99.90
2523;DHT22;1272;53.332;9.860;2022-11-20T16:38:39;1.80;99.90
2523;DHT22;1272;53.332;9.860;2022-11-20T16:41:05;1.80;99.90
2523;DHT22;1272;53.332;9.860;2022-11-20T16:43:31;1.70;99.90
2523;DHT22;1272;53.332;9.860;2022-11-20T16:45:57;1.70;99.90
2523;DHT22;1272;53.332;9.860;2022-11-20T16:48:22;1.70;99.90
2523;DHT22;1272;53.332;9.860;2022-11-20T16:50:55;1.70;99.90
2523;DHT22;1272;53.332;9.860;2022-11-20T16:53:21;1.80;99.90
2523;DHT22;1272;53.332;9.860;2022-11-20T16:55:49;1.80;99.90
2523;DHT22;1272;53.332;9.860;2022-11-20T16:58:15;1.80;99.90
2523;DHT22;1272;53.332;9.860;2022-11-20T17:00:41;1.80;99.90
2523;DHT22;1272;53.332;9.860;2022-11-20T17:03:07;1.80;99.90
2523;DHT22;1272;53.332;9.860;2022-11-20T17:05:34;1.80;99.90
2523;DHT22;1272;53.332;9.860;2022-11-20T17:08:00;1.80;99.90
2523;DHT22;1272;53.332;9.860;2022-11-20T17:10:26;1.80;99.90
2523;DHT22;1272;53.332;9.860;2022-11-20T17:12:51;1.70;99.90
2523;DHT22;1272;53.332;9.860;2022-11-20T17:15:18;1.70;99.90
2523;DHT22;1272;53.332;9.860;2022-11-20T17:17:46;1.60;99.90
2523;DHT22;1272;53.332;9.860;2022-11-20T17:20:12;1.60;99.90
2523;DHT22;1272;53.332;9.860;2022-11-20T17:22:40;1.60;99.90
2523;DHT22;1272;53.332;9.860;2022-11-20T17:25:06;1.60;99.90
2523;DHT22;1272;53.332;9.860;2022-11-20T17:27:32;1.50;99.90
2523;DHT22;1272;53.332;9.860;2022-11-20T17:29:58;1.40;99.90
2523;DHT22;1272;53.332;9.860;2022-11-20T17:32:23;1.40;99.90
2523;DHT22;1272;53.332;9.860;2022-11-20T17:34:49;1.30;99.90
2523;DHT22;1272;53.332;9.860;2022-11-20T17:37:15;1.20;99.90
2523;DHT22;1272;53.332;9.860;2022-11-20T17:39:41;1.20;99.90
2523;DHT22;1272;53.332;9.860;2022-11-20T17:42:06;1.20;99.90
2523;DHT22;1272;53.332;9.860;2022-11-20T17:44:51;1.10;99.90
2523;DHT22;1272;53.332;9.860;2022-11-20T17:47:16;1.10;99.90
2523;DHT22;1272;53.332;9.860;2022-11-20T17:49:52;1.10;99.90
2523;DHT22;1272;53.332;9.860;2022-11-20T17:52:19;1.00;99.90
2523;DHT22;1272;53.332;9.860;2022-11-20T17:54:45;1.00;99.90
2523;DHT22;1272;53.332;9.860;2022-11-20T17:57:13;1.00;99.90
2523;DHT22;1272;53.332;9.860;2022-11-20T17:59:58;1.00;99.90
2523;DHT22;1272;53.332;9.860;2022-11-20T18:02:24;1.00;99.90
2523;DHT22;1272;53.332;9.860;2022-11-20T18:04:49;0.90;99.90
2523;DHT22;1272;53.332;9.860;2022-11-20T18:07:15;0.90;99.90
2523;DHT22;1272;53.332;9.860;2022-11-20T18:09:41;0.90;99.90
2523;DHT22;1272;53.332;9.860;2022-11-20T18:12:07;0.90;99.90
2523;DHT22;1272;53.332;9.860;2022-11-20T18:14:32;0.90;99.90
2523;DHT22;1272;53.332;9.860;2022-11-20T18:17:06;0.90;99.90
2523;DHT22;1272;53.332;9.860;2022-11-20T18:19:35;0.90;99.90
2523;DHT22;1272;53.332;9.860;2022-11-20T18:22:04;0.90;99.90